<?xml version="1.0" encoding="UTF-8" standalone="no" ?><gpx xmlns="http://www.topografix.com/GPX/1/1" xmlns:gpxx="http://www.garmin.com/xmlschemas/GpxExtensions/v3" xmlns:gpxtrkx="http://www.garmin.com/xmlschemas/TrackStatsExtension/v1" xmlns:wptx1="http://www.garmin.com/xmlschemas/WaypointExtension/v1" xmlns:gpxtpx="http://www.garmin.com/xmlschemas/TrackPointExtension/v1" creator="eTrex 30" version="1.1" xmlns:xsi="http://www.w3.org/2001/XMLSchema-instance" xsi:schemaLocation="http://www.topografix.com/GPX/1/1 http://www.topografix.com/GPX/1/1/gpx.xsd http://www.garmin.com/xmlschemas/GpxExtensions/v3 http://www8.garmin.com/xmlschemas/GpxExtensionsv3.xsd http://www.garmin.com/xmlschemas/TrackStatsExtension/v1 http://www8.garmin.com/xmlschemas/TrackStatsExtension.xsd http://www.garmin.com/xmlschemas/WaypointExtension/v1 http://www8.garmin.com/xmlschemas/WaypointExtensionv1.xsd http://www.garmin.com/xmlschemas/TrackPointExtension/v1 http://www.garmin.com/xmlschemas/TrackPointExtensionv1.xsd"><metadata><link href="http://www.garmin.com"><text>Garmin International</text></link><time>2014-08-27T14:13:04Z</time></metadata><trk><name>AVV PLACCHE VAL COLLINA</name><extensions><gpxx:TrackExtension><gpxx:DisplayColor>Black</gpxx:DisplayColor></gpxx:TrackExtension><gpxtrkx:TrackStatsExtension><gpxtrkx:Distance>3673</gpxtrkx:Distance></gpxtrkx:TrackStatsExtension></extensions><trkseg><trkpt lat="46.5956307203" lon="12.9450641479"><ele>1130.17</ele><time>2014-08-27T13:54:25Z</time></trkpt><trkpt lat="46.5954928380" lon="12.9433985800"><ele>1143.63</ele><time>2014-08-27T13:54:52Z</time></trkpt><trkpt lat="46.5951101203" lon="12.9421873111"><ele>1146.03</ele><time>2014-08-27T13:55:03Z</time></trkpt><trkpt lat="46.5944776218" lon="12.9412156809"><ele>1156.12</ele><time>2014-08-27T13:55:25Z</time></trkpt><trkpt lat="46.5943698306" lon="12.9403024726"><ele>1168.14</ele><time>2014-08-27T13:56:46Z</time></trkpt><trkpt lat="46.5941880271" lon="12.9390826542"><ele>1179.19</ele><time>2014-08-27T13:57:08Z</time></trkpt><trkpt lat="46.5932031535" lon="12.9392149206"><ele>1193.61</ele><time>2014-08-27T13:57:30Z</time></trkpt><trkpt lat="46.5921904519" lon="12.9391650483"><ele>1209.48</ele><time>2014-08-27T13:57:52Z</time></trkpt><trkpt lat="46.5913018025" lon="12.9385539237"><ele>1220.05</ele><time>2014-08-27T13:58:09Z</time></trkpt><trkpt lat="46.5905350260" lon="12.9376252927"><ele>1221.97</ele><time>2014-08-27T13:58:23Z</time></trkpt><trkpt lat="46.5904111415" lon="12.9368161038"><ele>1229.18</ele><time>2014-08-27T13:58:41Z</time></trkpt><trkpt lat="46.5911088511" lon="12.9375939444"><ele>1209.96</ele><time>2014-08-27T13:59:02Z</time></trkpt><trkpt lat="46.5907701384" lon="12.9364856891"><ele>1204.67</ele><time>2014-08-27T13:59:22Z</time></trkpt><trkpt lat="46.5912432969" lon="12.9367655609"><ele>1204.19</ele><time>2014-08-27T13:59:42Z</time></trkpt><trkpt lat="46.5910603199" lon="12.9356259573"><ele>1210.92</ele><time>2014-08-27T14:00:04Z</time></trkpt><trkpt lat="46.5917007811" lon="12.9360716231"><ele>1206.11</ele><time>2014-08-27T14:00:27Z</time></trkpt><trkpt lat="46.5924637020" lon="12.9354143143"><ele>1220.53</ele><time>2014-08-27T14:00:44Z</time></trkpt><trkpt lat="46.5932346694" lon="12.9358079284"><ele>1209.00</ele><time>2014-08-27T14:01:04Z</time></trkpt><trkpt lat="46.5941524878" lon="12.9355678707"><ele>1209.00</ele><time>2014-08-27T14:01:21Z</time></trkpt><trkpt lat="46.5951196756" lon="12.9352908488"><ele>1209.48</ele><time>2014-08-27T14:01:45Z</time></trkpt><trkpt lat="46.5955790877" lon="12.9346671514"><ele>1216.69</ele><time>2014-08-27T14:02:08Z</time></trkpt><trkpt lat="46.5953707136" lon="12.9333578981"><ele>1223.42</ele><time>2014-08-27T14:02:23Z</time></trkpt><trkpt lat="46.5954981185" lon="12.9319919832"><ele>1232.55</ele><time>2014-08-27T14:02:45Z</time></trkpt><trkpt lat="46.5959794074" lon="12.9307755176"><ele>1248.89</ele><time>2014-08-27T14:03:01Z</time></trkpt><trkpt lat="46.5961104166" lon="12.9294368438"><ele>1254.66</ele><time>2014-08-27T14:03:14Z</time></trkpt><trkpt lat="46.5961059742" lon="12.9281210527"><ele>1266.19</ele><time>2014-08-27T14:03:24Z</time></trkpt><trkpt lat="46.5964222234" lon="12.9278788995"><ele>1269.08</ele><time>2014-08-27T14:03:38Z</time></trkpt><trkpt lat="46.5965515561" lon="12.9277056456"><ele>1261.39</ele><time>2014-08-27T14:04:28Z</time></trkpt><trkpt lat="46.5960588679" lon="12.9265351128"><ele>1271.96</ele><time>2014-08-27T14:04:46Z</time></trkpt><trkpt lat="46.5952432249" lon="12.9266760126"><ele>1282.54</ele><time>2014-08-27T14:05:07Z</time></trkpt><trkpt lat="46.5945344511" lon="12.9273380153"><ele>1290.71</ele><time>2014-08-27T14:05:25Z</time></trkpt><trkpt lat="46.5937120188" lon="12.9277529195"><ele>1300.32</ele><time>2014-08-27T14:05:46Z</time></trkpt><trkpt lat="46.5936833527" lon="12.9272046592"><ele>1328.20</ele><time>2014-08-27T14:09:51Z</time></trkpt></trkseg></trk></gpx>